Time;durP1;ratioP1;P1;durP2;ratioP2;P2;SDS_P1;SDS_P2;PMS_P1;PMS_P2;Temp;Humidity;BMP_temperature;BMP_pressure;BME280_temperature;BME280_humidity;BME280_pressure;Samples;Min_cycle;Max_cycle;Signal;HPM_P1;HPM_P2
2021/12/18 00:00:05;;;;;;;;;;;3.90;99.90;4.40;101121.00;;;;342186;28;88357;-87
2021/12/18 00:00:19;;;;;;;;;;;3.90;99.90;4.40;101120.00;;;;339019;28;86003;-87
2021/12/18 00:00:31;;;;;;;;;;;3.90;99.90;4.40;101117.00;;;;340740;28;91225;-87
2021/12/18 00:00:43;;;;;;;;;;;3.90;99.90;4.30;101124.00;;;;341945;28;88277;-87
2021/12/18 00:00:57;;;;;;;;;;;3.90;99.90;4.30;101124.00;;;;342454;28;89767;-87
2021/12/18 00:01:09;;;;;;;;;;;3.90;99.90;4.40;101121.00;;;;341313;28;87322;-87
2021/12/18 00:01:21;;;;;;;;;;;3.90;99.90;4.30;101125.00;;;;342334;28;87648;-86
2021/12/18 00:01:33;;;;;;;;;;;3.90;99.90;4.30;101123.00;;;;343450;28;87458;-87
2021/12/18 00:01:45;;;;;;;;;;;3.90;99.90;4.30;101124.00;;;;341176;28;87173;-87
2021/12/18 00:01:57;;;;;;;;;;;3.90;99.90;4.30;101124.00;;;;340892;28;85301;-88
2021/12/18 00:02:09;;;;;;;;;;;3.90;99.90;4.40;101124.00;;;;342287;28;88695;-87
2021/12/18 00:02:21;;;;;;;;;;;3.90;99.90;4.40;101119.00;;;;341560;28;86096;-87
2021/12/18 00:02:32;;;;;;;;;;;3.90;99.90;4.40;101125.00;;;;340420;28;90958;-88
2021/12/18 00:02:45;;;;;;;;;;;3.90;99.90;4.40;101122.00;;;;340428;28;86129;-87
2021/12/18 00:02:57;;;;;;;;;;;3.90;99.90;4.40;101118.00;;;;342141;28;87518;-87
2021/12/18 00:03:09;;;;;;;;;;;3.90;99.90;4.40;101127.00;;;;343105;28;86629;-87
2021/12/18 00:03:21;;;;;;;;;;;3.90;99.90;4.50;101122.00;;;;341828;28;89745;-87
2021/12/18 00:03:33;;;;;;;;;;;3.90;99.90;4.50;101121.00;;;;340537;28;87574;-87
2021/12/18 00:03:45;;;;;;;;;;;3.90;99.90;4.60;101120.00;;;;343582;28;88773;-87
2021/12/18 00:03:57;;;;;;;;;;;3.90;99.90;4.50;101118.00;;;;339509;28;87213;-87
2021/12/18 00:04:10;;;;;;;;;;;3.90;99.90;4.50;101123.00;;;;339368;28;89187;-87
2021/12/18 00:04:22;;;;;;;;;;;3.90;99.90;4.50;101122.00;;;;341916;28;88427;-87
2021/12/18 00:04:34;;;;;;;;;;;3.90;99.90;4.50;101120.00;;;;341747;28;89333;-87
2021/12/18 00:04:45;;;;;;;;;;;3.90;99.90;4.50;101120.00;;;;342113;28;86073;-87
2021/12/18 00:04:57;;;;;;;;;;;3.90;99.90;4.50;101126.00;;;;342520;28;86987;-86
2021/12/18 00:05:10;;;;;;;;;;;3.90;99.90;4.50;101114.00;;;;341522;28;86345;-88
2021/12/18 00:05:21;;;;;;;;;;;3.90;99.90;4.50;101122.00;;;;342211;28;89571;-87
2021/12/18 00:05:33;;;;;;;;;;;3.90;99.90;4.40;101118.00;;;;340805;28;86507;-87
2021/12/18 00:05:45;;;;;;;;;;;3.90;99.90;4.40;101126.00;;;;341094;28;89335;-88
2021/12/18 00:05:57;;;;;;;;;;;3.90;99.90;4.40;101122.00;;;;343455;28;85669;-87
2021/12/18 00:06:09;;;;;;;;;;;3.90;99.90;4.40;101134.00;;;;342488;28;89186;-87
2021/12/18 00:06:20;;;;;;;;;;;3.90;99.90;4.40;101109.00;;;;340703;28;86870;-86
2021/12/18 00:06:32;;;;;;;;;;;3.90;99.90;4.40;101126.00;;;;342391;28;90359;-87
2021/12/18 00:06:44;;;;;;;;;;;3.90;99.90;4.40;101128.00;;;;343220;28;86192;-87
2021/12/18 00:06:57;;;;;;;;;;;3.90;99.90;4.40;101120.00;;;;341104;28;87605;-87
2021/12/18 00:07:09;;;;;;;;;;;3.90;99.90;4.40;101125.00;;;;342385;28;87026;-87
2021/12/18 00:07:20;;;;;;;;;;;4.00;99.90;4.40;101113.00;;;;343838;28;87464;-87
2021/12/18 00:07:34;;;;;;;;;;;4.00;99.90;4.50;101117.00;;;;340625;28;87463;-87
2021/12/18 00:07:46;;;;;;;;;;;3.90;99.90;4.40;101115.00;;;;342391;28;89363;-87
2021/12/18 00:07:58;;;;;;;;;;;4.00;99.90;4.40;101123.00;;;;339371;28;86986;-87
2021/12/18 00:08:10;;;;;;;;;;;4.00;99.90;4.40;101121.00;;;;342507;28;86263;-87
2021/12/18 00:08:22;;;;;;;;;;;4.00;99.90;4.40;101123.00;;;;340710;28;89045;-87
2021/12/18 00:08:34;;;;;;;;;;;4.00;99.90;4.40;101128.00;;;;339698;28;89753;-87
2021/12/18 00:08:46;;;;;;;;;;;3.90;99.90;4.40;101127.00;;;;342187;28;86342;-87
2021/12/18 00:08:58;;;;;;;;;;;3.90;99.90;4.40;101128.00;;;;342323;28;90093;-87
2021/12/18 00:09:10;;;;;;;;;;;4.00;99.90;4.40;101112.00;;;;341935;28;87513;-87
2021/12/18 00:09:22;;;;;;;;;;;4.00;99.90;4.40;101117.00;;;;343668;28;90825;-87
2021/12/18 00:09:34;;;;;;;;;;;4.00;99.90;4.40;101114.00;;;;338181;28;86752;-88
2021/12/18 00:09:47;;;;;;;;;;;4.00;99.90;4.50;101123.00;;;;339768;28;90425;-87
2021/12/18 00:09:59;;;;;;;;;;;4.00;99.90;4.50;101123.00;;;;342107;28;86499;-87
2021/12/18 00:10:11;;;;;;;;;;;4.00;99.90;4.40;101115.00;;;;342095;28;88426;-87
2021/12/18 00:10:23;;;;;;;;;;;4.00;99.90;4.40;101119.00;;;;340604;28;86528;-88
2021/12/18 00:10:35;;;;;;;;;;;4.00;99.90;4.40;101114.00;;;;340873;28;91530;-87
2021/12/18 00:10:47;;;;;;;;;;;4.00;99.90;4.40;101106.00;;;;340763;28;86086;-87
2021/12/18 00:10:59;;;;;;;;;;;3.90;99.90;4.40;101116.00;;;;342366;28;89597;-87
2021/12/18 00:11:13;;;;;;;;;;;4.00;99.90;4.40;101106.00;;;;341410;28;86927;-88
2021/12/18 00:11:24;;;;;;;;;;;4.00;99.90;4.40;101114.00;;;;340901;28;89707;-88
2021/12/18 00:11:37;;;;;;;;;;;4.00;99.90;4.40;101104.00;;;;341848;28;88858;-88
2021/12/18 00:11:50;;;;;;;;;;;4.00;99.90;4.40;101104.00;;;;343591;28;91281;-87
2021/12/18 00:12:03;;;;;;;;;;;4.00;99.90;4.40;101102.00;;;;343263;28;88704;-87
2021/12/18 00:12:15;;;;;;;;;;;4.00;99.90;4.40;101114.00;;;;340832;28;89161;-87
2021/12/18 00:12:27;;;;;;;;;;;4.00;99.90;4.40;101107.00;;;;341717;28;86754;-88
2021/12/18 00:12:47;;;;;;;;;;;4.00;99.90;4.40;101112.00;;;;343456;28;90597;-88
2021/12/18 00:13:00;;;;;;;;;;;4.00;99.90;4.40;101108.00;;;;340556;28;87239;-87
2021/12/18 00:13:12;;;;;;;;;;;4.00;99.90;4.50;101108.00;;;;344202;28;90009;-87
2021/12/18 00:13:24;;;;;;;;;;;4.00;99.90;4.40;101108.00;;;;342781;28;87483;-87
2021/12/18 00:13:36;;;;;;;;;;;4.00;99.90;4.50;101106.00;;;;342889;28;89700;-87
2021/12/18 00:13:49;;;;;;;;;;;4.00;99.90;4.50;101107.00;;;;339791;28;87882;-87
2021/12/18 00:14:01;;;;;;;;;;;4.00;99.90;4.40;101102.00;;;;342770;28;90260;-87
2021/12/18 00:14:13;;;;;;;;;;;4.00;99.90;4.40;101102.00;;;;342508;28;86863;-87
2021/12/18 00:14:25;;;;;;;;;;;4.00;99.90;4.50;101100.00;;;;340105;28;89108;-88
2021/12/18 00:14:36;;;;;;;;;;;4.00;99.90;4.40;101094.00;;;;342437;28;87022;-87
2021/12/18 00:14:50;;;;;;;;;;;4.00;99.90;4.50;101108.00;;;;342919;28;91011;-87
2021/12/18 00:15:02;;;;;;;;;;;4.00;99.90;4.50;101109.00;;;;339979;28;86955;-87
2021/12/18 00:15:14;;;;;;;;;;;4.00;99.90;4.50;101106.00;;;;342706;28;90902;-87
2021/12/18 00:15:25;;;;;;;;;;;4.00;99.90;4.50;101107.00;;;;341142;28;87883;-88
2021/12/18 00:15:37;;;;;;;;;;;4.00;99.90;4.50;101104.00;;;;338787;28;89837;-88
2021/12/18 00:15:49;;;;;;;;;;;4.00;99.90;4.50;101103.00;;;;337059;28;88544;-87
2021/12/18 00:16:02;;;;;;;;;;;4.00;99.90;4.50;101110.00;;;;338176;28;90930;-88
2021/12/18 00:16:14;;;;;;;;;;;4.00;99.90;4.50;101096.00;;;;341394;28;87011;-88
2021/12/18 00:16:26;;;;;;;;;;;4.00;99.90;4.50;101092.00;;;;340720;28;90485;-87
2021/12/18 00:16:38;;;;;;;;;;;4.00;99.90;4.50;101103.00;;;;340088;28;86927;-87
2021/12/18 00:16:49;;;;;;;;;;;4.00;99.90;4.50;101109.00;;;;337886;28;90371;-87
2021/12/18 00:17:02;;;;;;;;;;;4.00;99.90;4.50;101105.00;;;;337923;28;86903;-87
2021/12/18 00:17:13;;;;;;;;;;;4.00;99.90;4.50;101096.00;;;;339345;28;88564;-87
2021/12/18 00:17:25;;;;;;;;;;;4.00;99.90;4.50;101102.00;;;;339134;28;88294;-88
2021/12/18 00:17:37;;;;;;;;;;;4.00;99.90;4.50;101105.00;;;;339321;28;88914;-87
2021/12/18 00:17:49;;;;;;;;;;;4.00;99.90;4.50;101103.00;;;;339125;28;87022;-87
2021/12/18 00:18:01;;;;;;;;;;;4.00;99.90;4.60;101103.00;;;;340597;28;91195;-87
2021/12/18 00:18:12;;;;;;;;;;;4.00;99.90;4.60;101100.00;;;;338849;28;86252;-87
2021/12/18 00:18:24;;;;;;;;;;;4.00;99.90;4.60;101096.00;;;;339303;28;88948;-88
2021/12/18 00:18:36;;;;;;;;;;;4.00;99.90;4.60;101105.00;;;;340440;28;87176;-87
2021/12/18 00:18:51;;;;;;;;;;;4.00;99.90;4.60;101095.00;;;;340511;28;89925;-87
2021/12/18 00:19:02;;;;;;;;;;;4.00;99.90;4.60;101099.00;;;;336155;28;86990;-87
2021/12/18 00:19:14;;;;;;;;;;;4.00;99.90;4.60;101107.00;;;;338768;28;90587;-87
2021/12/18 00:19:27;;;;;;;;;;;4.00;99.90;4.60;101089.00;;;;339058;28;86910;-88
2021/12/18 00:19:39;;;;;;;;;;;4.00;99.90;4.60;101105.00;;;;342011;28;91401;-88
2021/12/18 00:19:51;;;;;;;;;;;4.00;99.90;4.60;101096.00;;;;340411;28;87860;-87
2021/12/18 00:20:03;;;;;;;;;;;4.00;99.90;4.60;101101.00;;;;341736;28;90102;-87
2021/12/18 00:20:16;;;;;;;;;;;4.00;99.90;4.60;101094.00;;;;341837;28;87653;-87
2021/12/18 00:20:28;;;;;;;;;;;4.00;99.90;4.60;101094.00;;;;339299;28;90082;-87
2021/12/18 00:20:40;;;;;;;;;;;4.00;99.90;4.60;101096.00;;;;341507;28;86932;-87
2021/12/18 00:20:51;;;;;;;;;;;4.00;99.90;4.60;101092.00;;;;337967;28;90531;-87
2021/12/18 00:21:04;;;;;;;;;;;4.10;99.90;4.60;101099.00;;;;338927;28;87210;-87
2021/12/18 00:21:18;;;;;;;;;;;4.10;99.90;4.60;101096.00;;;;343287;28;90898;-87
2021/12/18 00:21:30;;;;;;;;;;;4.10;99.90;4.60;101100.00;;;;338976;28;88649;-86
2021/12/18 00:21:42;;;;;;;;;;;4.10;99.90;4.60;101107.00;;;;339037;28;90268;-88
2021/12/18 00:21:54;;;;;;;;;;;4.00;99.90;4.50;101105.00;;;;338975;28;87285;-87
2021/12/18 00:22:06;;;;;;;;;;;4.00;99.90;4.60;101091.00;;;;339664;28;90920;-87
2021/12/18 00:22:17;;;;;;;;;;;4.10;99.90;4.50;101095.00;;;;340611;28;87958;-87
2021/12/18 00:22:29;;;;;;;;;;;4.10;99.90;4.50;101103.00;;;;340642;28;89682;-87
2021/12/18 00:22:42;;;;;;;;;;;4.10;99.90;4.50;101108.00;;;;340303;28;87193;-87
2021/12/18 00:22:53;;;;;;;;;;;4.10;99.90;4.50;101100.00;;;;339349;28;89744;-87
2021/12/18 00:23:05;;;;;;;;;;;4.10;99.90;4.60;101101.00;;;;338837;28;87000;-87
2021/12/18 00:23:17;;;;;;;;;;;4.10;99.90;4.60;101093.00;;;;340638;28;88638;-87
2021/12/18 00:23:29;;;;;;;;;;;4.10;99.90;4.60;101096.00;;;;341736;28;88324;-87
2021/12/18 00:23:41;;;;;;;;;;;4.10;99.90;4.60;101100.00;;;;339167;28;89486;-87
2021/12/18 00:23:53;;;;;;;;;;;4.00;99.90;4.60;101094.00;;;;340476;28;87085;-87
2021/12/18 00:24:06;;;;;;;;;;;4.10;99.90;4.80;101087.00;;;;340427;28;89699;-88
2021/12/18 00:24:19;;;;;;;;;;;4.10;99.90;4.80;101099.00;;;;339191;28;86759;-87
2021/12/18 00:24:31;;;;;;;;;;;4.10;99.90;4.80;101091.00;;;;340490;28;89900;-87
2021/12/18 00:24:42;;;;;;;;;;;4.10;99.90;4.70;101093.00;;;;338895;28;87004;-87
2021/12/18 00:24:54;;;;;;;;;;;4.10;99.90;4.70;101085.00;;;;339394;28;87124;-87
2021/12/18 00:25:06;;;;;;;;;;;4.10;99.90;4.70;101099.00;;;;339847;28;87028;-87
2021/12/18 00:25:19;;;;;;;;;;;4.10;99.90;4.70;101089.00;;;;338688;28;88627;-87
2021/12/18 00:25:31;;;;;;;;;;;4.10;99.90;4.70;101099.00;;;;338879;28;87036;-87
2021/12/18 00:25:43;;;;;;;;;;;4.10;99.90;4.70;101090.00;;;;343261;28;89798;-88
2021/12/18 00:25:55;;;;;;;;;;;4.10;99.90;4.70;101091.00;;;;340389;28;87052;-87
2021/12/18 00:26:07;;;;;;;;;;;4.10;99.90;4.70;101096.00;;;;340161;28;87075;-87
2021/12/18 00:26:19;;;;;;;;;;;4.20;99.90;4.80;101089.00;;;;337918;28;86102;-88
2021/12/18 00:26:31;;;;;;;;;;;4.20;99.90;4.70;101096.00;;;;341805;28;87739;-87
2021/12/18 00:26:43;;;;;;;;;;;4.20;99.90;4.70;101094.00;;;;341595;28;86292;-87
2021/12/18 00:26:55;;;;;;;;;;;4.20;99.90;4.70;101100.00;;;;340283;28;89771;-87
2021/12/18 00:27:07;;;;;;;;;;;4.10;99.90;4.70;101099.00;;;;339194;28;86691;-87
2021/12/18 00:27:18;;;;;;;;;;;4.20;99.90;4.70;101099.00;;;;339057;28;89906;-87
2021/12/18 00:27:30;;;;;;;;;;;4.20;99.90;4.70;101096.00;;;;340365;28;87051;-87
2021/12/18 00:27:42;;;;;;;;;;;4.20;99.90;4.70;101103.00;;;;341820;28;91001;-87
2021/12/18 00:27:54;;;;;;;;;;;4.20;99.90;4.70;101094.00;;;;340189;28;87401;-87
2021/12/18 00:28:06;;;;;;;;;;;4.20;99.90;4.70;101105.00;;;;340497;28;88431;-87
2021/12/18 00:28:17;;;;;;;;;;;4.10;99.90;4.70;101099.00;;;;340054;28;88217;-87
2021/12/18 00:28:29;;;;;;;;;;;4.20;99.90;4.70;101107.00;;;;340530;28;87966;-88
2021/12/18 00:28:41;;;;;;;;;;;4.20;99.90;4.70;101102.00;;;;344065;28;87118;-87
2021/12/18 00:28:53;;;;;;;;;;;4.20;99.90;4.70;101107.00;;;;343192;28;88512;-87
2021/12/18 00:29:05;;;;;;;;;;;4.20;99.90;4.70;101104.00;;;;341577;28;87000;-87
2021/12/18 00:29:16;;;;;;;;;;;4.20;99.90;4.70;101100.00;;;;340656;28;87802;-87
2021/12/18 00:29:28;;;;;;;;;;;4.20;99.90;4.70;101104.00;;;;340461;28;86025;-87
2021/12/18 00:29:40;;;;;;;;;;;4.20;99.90;4.70;101104.00;;;;342034;28;87127;-87
2021/12/18 00:29:52;;;;;;;;;;;4.20;99.90;4.70;101108.00;;;;340409;28;86853;-87
2021/12/18 00:30:05;;;;;;;;;;;4.20;99.90;4.60;101109.00;;;;339153;28;90560;-87
2021/12/18 00:30:16;;;;;;;;;;;4.20;99.90;4.60;101104.00;;;;339209;28;86095;-88
2021/12/18 00:30:28;;;;;;;;;;;4.20;99.90;4.60;101104.00;;;;340640;28;88117;-87
2021/12/18 00:30:40;;;;;;;;;;;4.20;99.90;4.60;101102.00;;;;341882;28;86855;-87
2021/12/18 00:30:52;;;;;;;;;;;4.20;99.90;4.60;101110.00;;;;341899;28;89878;-87
2021/12/18 00:31:04;;;;;;;;;;;4.20;99.90;4.60;101099.00;;;;339938;28;86790;-87
2021/12/18 00:31:15;;;;;;;;;;;4.20;99.90;4.60;101110.00;;;;338559;28;85850;-87
2021/12/18 00:31:27;;;;;;;;;;;4.20;99.90;4.60;101104.00;;;;341716;28;87015;-87
2021/12/18 00:31:39;;;;;;;;;;;4.10;99.90;4.60;101106.00;;;;341998;28;87449;-87
2021/12/18 00:31:51;;;;;;;;;;;4.20;99.90;4.60;101102.00;;;;341681;28;86140;-87
2021/12/18 00:32:03;;;;;;;;;;;4.20;99.90;4.60;101108.00;;;;340380;28;91557;-87
2021/12/18 00:32:15;;;;;;;;;;;4.20;99.90;4.60;101107.00;;;;339201;28;85185;-87
2021/12/18 00:32:27;;;;;;;;;;;4.20;99.90;4.50;101101.00;;;;340657;28;87199;-87
2021/12/18 00:32:39;;;;;;;;;;;4.10;99.90;4.60;101101.00;;;;341819;28;86822;-87
2021/12/18 00:32:51;;;;;;;;;;;4.20;99.90;4.50;101099.00;;;;337898;28;89502;-88
2021/12/18 00:33:03;;;;;;;;;;;4.20;99.90;4.50;101106.00;;;;338862;28;87090;-87
2021/12/18 00:33:15;;;;;;;;;;;4.10;99.90;4.50;101105.00;;;;340525;28;88977;-87
2021/12/18 00:33:27;;;;;;;;;;;4.10;99.90;4.50;101101.00;;;;340095;28;86645;-87
2021/12/18 00:33:39;;;;;;;;;;;4.20;99.90;4.60;101104.00;;;;340591;28;89680;-87
2021/12/18 00:33:50;;;;;;;;;;;4.20;99.90;4.70;101114.00;;;;339013;28;88099;-87
2021/12/18 00:34:03;;;;;;;;;;;4.20;99.90;4.60;101105.00;;;;340520;28;90051;-87
2021/12/18 00:34:14;;;;;;;;;;;4.20;99.90;4.50;101109.00;;;;341388;28;86210;-87
2021/12/18 00:34:26;;;;;;;;;;;4.20;99.90;4.50;101107.00;;;;342064;28;86681;-87
2021/12/18 00:34:39;;;;;;;;;;;4.20;99.90;4.50;101104.00;;;;340074;28;87093;-87
2021/12/18 00:34:50;;;;;;;;;;;4.20;99.90;4.50;101110.00;;;;340583;28;88865;-87
2021/12/18 00:35:03;;;;;;;;;;;4.20;99.90;4.60;101112.00;;;;341800;28;86134;-87
2021/12/18 00:35:15;;;;;;;;;;;4.20;99.90;4.60;101108.00;;;;339145;28;90200;-87
2021/12/18 00:35:27;;;;;;;;;;;4.20;99.90;4.50;101107.00;;;;338779;28;86016;-87
2021/12/18 00:35:39;;;;;;;;;;;4.20;99.90;4.50;101109.00;;;;336396;28;89422;-87
2021/12/18 00:35:51;;;;;;;;;;;4.10;99.90;4.50;101110.00;;;;340314;28;87075;-87
2021/12/18 00:36:03;;;;;;;;;;;4.10;99.90;4.50;101100.00;;;;343188;28;90088;-87
2021/12/18 00:36:15;;;;;;;;;;;4.20;99.90;4.60;101106.00;;;;341795;28;85342;-87
2021/12/18 00:36:27;;;;;;;;;;;4.10;99.90;4.50;101107.00;;;;336778;28;88434;-87
2021/12/18 00:36:40;;;;;;;;;;;4.10;99.90;4.50;101104.00;;;;338859;28;86130;-87
2021/12/18 00:36:51;;;;;;;;;;;4.10;99.90;4.50;101108.00;;;;340817;28;89682;-87
2021/12/18 00:37:03;;;;;;;;;;;4.10;99.90;4.50;101117.00;;;;340101;28;87078;-87
2021/12/18 00:37:15;;;;;;;;;;;4.10;99.90;4.50;101110.00;;;;340281;28;87228;-87
2021/12/18 00:37:27;;;;;;;;;;;4.10;99.90;4.50;101113.00;;;;337710;28;87031;-87
2021/12/18 00:37:39;;;;;;;;;;;4.10;99.90;4.60;101109.00;;;;341359;28;89233;-87
2021/12/18 00:37:51;;;;;;;;;;;4.10;99.90;4.50;101101.00;;;;337882;28;86717;-87
2021/12/18 00:38:04;;;;;;;;;;;4.10;99.90;4.50;101109.00;;;;337718;28;89506;-87
2021/12/18 00:38:15;;;;;;;;;;;4.10;99.90;4.70;101103.00;;;;339167;28;85970;-88
2021/12/18 00:38:29;;;;;;;;;;;4.10;99.90;4.60;101096.00;;;;339177;28;86633;-87
2021/12/18 00:38:42;;;;;;;;;;;4.10;99.90;4.60;101104.00;;;;339123;28;86061;-87
2021/12/18 00:38:53;;;;;;;;;;;4.10;99.90;4.60;101107.00;;;;339113;28;90087;-87
2021/12/18 00:39:06;;;;;;;;;;;4.10;99.90;4.60;101103.00;;;;340279;28;87158;-87
2021/12/18 00:39:18;;;;;;;;;;;4.10;99.90;4.50;101101.00;;;;339254;28;87553;-87
2021/12/18 00:39:32;;;;;;;;;;;4.10;99.90;4.60;101112.00;;;;338910;28;87117;-87
2021/12/18 00:39:55;;;;;;;;;;;4.10;99.90;4.70;101093.00;;;;339200;28;89847;-87
2021/12/18 00:40:11;;;;;;;;;;;4.10;99.90;4.60;101100.00;;;;340832;28;87186;-87
2021/12/18 00:40:26;;;;;;;;;;;4.10;99.90;4.60;101103.00;;;;338980;28;87516;-87
2021/12/18 00:40:46;;;;;;;;;;;4.20;99.90;4.60;101102.00;;;;339008;28;86056;-87
2021/12/18 00:42:07;;;;;;;;;;;4.10;99.90;4.40;101093.00;;;;341823;28;90673;-87
2021/12/18 00:42:44;;;;;;;;;;;4.10;99.90;4.40;101109.00;;;;343348;28;87651;-87
2021/12/18 00:42:59;;;;;;;;;;;4.00;99.90;4.60;101111.00;;;;340232;28;88032;-87
2021/12/18 00:43:28;;;;;;;;;;;4.10;99.90;4.50;101105.00;;;;338719;28;88451;-87
2021/12/18 00:44:01;;;;;;;;;;;4.10;99.90;4.60;101109.00;;;;337529;28;88435;-87
2021/12/18 00:44:13;;;;;;;;;;;4.10;99.90;4.60;101107.00;;;;338087;28;87895;-87
2021/12/18 00:44:25;;;;;;;;;;;4.10;99.90;4.50;101110.00;;;;340653;28;86216;-87
2021/12/18 00:44:37;;;;;;;;;;;4.10;99.90;4.50;101112.00;;;;339311;28;86049;-87
2021/12/18 00:44:49;;;;;;;;;;;4.10;99.90;4.40;101107.00;;;;341674;28;86989;-87
2021/12/18 00:45:02;;;;;;;;;;;4.10;99.90;4.40;101101.00;;;;342048;28;88654;-87
2021/12/18 00:45:15;;;;;;;;;;;4.00;99.90;4.40;101103.00;;;;338997;28;87021;-87
2021/12/18 00:45:28;;;;;;;;;;;4.00;99.90;4.40;101099.00;;;;340572;28;89940;-87
2021/12/18 00:45:40;;;;;;;;;;;4.00;99.90;4.40;101091.00;;;;339192;28;85985;-87
2021/12/18 00:45:52;;;;;;;;;;;4.00;99.90;4.50;101102.00;;;;340677;28;88525;-87
2021/12/18 00:46:04;;;;;;;;;;;4.00;99.90;4.60;101099.00;;;;338956;28;87100;-87
2021/12/18 00:46:16;;;;;;;;;;;4.10;99.90;4.60;101099.00;;;;343175;28;88859;-87
2021/12/18 00:46:39;;;;;;;;;;;4.00;99.90;4.70;101088.00;;;;340268;28;88059;-87
2021/12/18 00:46:51;;;;;;;;;;;4.10;99.90;4.70;101088.00;;;;338040;28;89363;-87
2021/12/18 00:47:05;;;;;;;;;;;4.10;99.90;4.70;101086.00;;;;341930;28;86947;-87
2021/12/18 00:47:17;;;;;;;;;;;4.10;99.90;4.60;101086.00;;;;337955;28;87731;-87
2021/12/18 00:47:29;;;;;;;;;;;4.10;99.90;4.60;101100.00;;;;339116;28;86807;-86
2021/12/18 00:47:41;;;;;;;;;;;4.10;99.90;4.60;101092.00;;;;342037;28;89305;-87
2021/12/18 00:47:53;;;;;;;;;;;4.10;99.90;4.50;101088.00;;;;340409;28;86836;-86
2021/12/18 00:48:05;;;;;;;;;;;4.10;99.90;4.60;101090.00;;;;340746;28;87335;-88
2021/12/18 00:48:17;;;;;;;;;;;4.10;99.90;4.60;101090.00;;;;340375;28;86961;-87
2021/12/18 00:48:29;;;;;;;;;;;4.10;99.90;4.60;101100.00;;;;339370;28;88706;-87
2021/12/18 00:48:41;;;;;;;;;;;4.10;99.90;4.70;101089.00;;;;339081;28;86089;-87
2021/12/18 00:48:53;;;;;;;;;;;4.10;99.90;4.60;101091.00;;;;339204;28;89259;-87
2021/12/18 00:49:05;;;;;;;;;;;4.10;99.90;4.60;101091.00;;;;341213;28;86975;-87
2021/12/18 00:49:18;;;;;;;;;;;4.10;99.90;4.60;101088.00;;;;342716;28;88462;-87
2021/12/18 00:49:29;;;;;;;;;;;4.10;99.90;4.60;101099.00;;;;339073;28;86788;-87
2021/12/18 00:49:41;;;;;;;;;;;4.10;99.90;4.60;101088.00;;;;340592;28;90212;-87
2021/12/18 00:49:53;;;;;;;;;;;4.10;99.90;4.60;101091.00;;;;341781;28;86884;-87
2021/12/18 00:50:06;;;;;;;;;;;4.10;99.90;4.50;101093.00;;;;340681;28;87418;-87
2021/12/18 00:50:21;;;;;;;;;;;4.10;99.90;4.50;101094.00;;;;340392;28;86845;-87
2021/12/18 00:50:33;;;;;;;;;;;4.10;99.90;4.50;101086.00;;;;340695;28;88103;-87
2021/12/18 00:50:45;;;;;;;;;;;4.10;99.90;4.60;101083.00;;;;341781;28;86154;-87
2021/12/18 00:50:57;;;;;;;;;;;4.10;99.90;4.50;101092.00;;;;339311;28;88116;-87
2021/12/18 00:51:14;;;;;;;;;;;4.10;99.90;4.60;101083.00;;;;340203;28;87294;-87
2021/12/18 00:51:26;;;;;;;;;;;4.00;99.90;4.60;101090.00;;;;340695;28;88087;-87
2021/12/18 00:51:37;;;;;;;;;;;4.00;99.90;4.60;101092.00;;;;340448;28;86682;-87
2021/12/18 00:51:49;;;;;;;;;;;4.10;99.90;4.60;101087.00;;;;341899;28;90666;-87
2021/12/18 00:52:01;;;;;;;;;;;4.10;99.90;4.50;101088.00;;;;338882;28;86928;-87
2021/12/18 00:52:13;;;;;;;;;;;4.10;99.90;4.50;101085.00;;;;340674;28;87690;-87
2021/12/18 00:52:24;;;;;;;;;;;4.10;99.90;4.60;101093.00;;;;338837;28;88166;-88
2021/12/18 00:52:36;;;;;;;;;;;4.00;99.90;4.70;101088.00;;;;338963;28;90771;-87
2021/12/18 00:52:48;;;;;;;;;;;4.00;99.90;4.60;101082.00;;;;342603;28;86956;-86
2021/12/18 00:53:00;;;;;;;;;;;4.10;99.90;4.50;101083.00;;;;339429;28;86396;-87
2021/12/18 00:53:12;;;;;;;;;;;4.00;99.90;4.50;101091.00;;;;338787;28;86832;-87
2021/12/18 00:53:24;;;;;;;;;;;4.00;99.90;4.40;101083.00;;;;339179;28;88676;-87
2021/12/18 00:53:35;;;;;;;;;;;4.00;99.90;4.40;101086.00;;;;341731;28;86866;-88
2021/12/18 00:53:47;;;;;;;;;;;4.00;99.90;4.50;101089.00;;;;340612;28;88940;-87
2021/12/18 00:53:59;;;;;;;;;;;4.00;99.90;4.50;101089.00;;;;340409;28;87449;-87
2021/12/18 00:54:11;;;;;;;;;;;4.00;99.90;4.50;101087.00;;;;339446;28;88130;-87
2021/12/18 00:54:23;;;;;;;;;;;4.00;99.90;4.40;101080.00;;;;341593;28;88260;-87
2021/12/18 00:54:35;;;;;;;;;;;4.00;99.90;4.40;101087.00;;;;343300;28;88567;-87
2021/12/18 00:54:47;;;;;;;;;;;4.00;99.90;4.60;101081.00;;;;338886;28;88292;-87
2021/12/18 00:54:59;;;;;;;;;;;4.00;99.90;4.70;101082.00;;;;339379;28;86915;-87
2021/12/18 00:55:11;;;;;;;;;;;4.00;99.90;4.70;101074.00;;;;342548;28;86201;-87
2021/12/18 00:55:23;;;;;;;;;;;4.10;99.90;4.70;101081.00;;;;341716;28;87334;-87
2021/12/18 00:55:37;;;;;;;;;;;4.10;99.90;4.60;101081.00;;;;339112;28;86906;-87
2021/12/18 00:55:51;;;;;;;;;;;4.10;99.90;4.60;101074.00;;;;340674;28;88433;-88
2021/12/18 00:56:03;;;;;;;;;;;4.10;99.90;4.60;101071.00;;;;339120;28;86154;-87
2021/12/18 00:56:15;;;;;;;;;;;4.10;99.90;4.70;101069.00;;;;340674;28;87978;-87
2021/12/18 00:56:27;;;;;;;;;;;4.10;99.90;4.60;101072.00;;;;338945;28;87013;-87
2021/12/18 00:56:38;;;;;;;;;;;4.10;99.90;4.70;101071.00;;;;337993;28;88748;-87
2021/12/18 00:56:50;;;;;;;;;;;4.10;99.90;4.60;101079.00;;;;339111;28;85848;-87
2021/12/18 00:57:02;;;;;;;;;;;4.10;99.90;4.60;101066.00;;;;338044;28;88070;-86
2021/12/18 00:57:14;;;;;;;;;;;4.10;99.90;4.60;101068.00;;;;340241;28;86868;-87
2021/12/18 00:57:26;;;;;;;;;;;4.10;99.90;4.60;101073.00;;;;340723;28;87468;-87
2021/12/18 00:57:38;;;;;;;;;;;4.10;99.90;4.50;101069.00;;;;340570;28;86733;-87
2021/12/18 00:57:50;;;;;;;;;;;4.10;99.90;4.50;101075.00;;;;340667;28;88491;-87
2021/12/18 00:58:02;;;;;;;;;;;4.10;99.90;4.50;101065.00;;;;337757;28;86909;-87
2021/12/18 00:58:14;;;;;;;;;;;4.10;99.90;4.50;101072.00;;;;340099;28;88483;-88
2021/12/18 00:58:26;;;;;;;;;;;4.10;99.90;4.50;101067.00;;;;339129;28;86963;-87
2021/12/18 00:58:38;;;;;;;;;;;4.10;99.90;4.60;101068.00;;;;341416;28;87415;-87
2021/12/18 00:58:50;;;;;;;;;;;4.10;99.90;4.60;101070.00;;;;341753;28;86249;-87
2021/12/18 00:59:02;;;;;;;;;;;4.10;99.90;4.50;101064.00;;;;343222;28;89029;-87
2021/12/18 00:59:14;;;;;;;;;;;4.10;99.90;4.50;101068.00;;;;341175;28;87518;-87
2021/12/18 00:59:26;;;;;;;;;;;4.10;99.90;4.50;101064.00;;;;337994;28;89539;-88
2021/12/18 00:59:38;;;;;;;;;;;4.10;99.90;4.50;101061.00;;;;339119;28;86877;-87
2021/12/18 00:59:52;;;;;;;;;;;4.10;99.90;4.50;101067.00;;;;340763;28;88123;-87
2021/12/18 01:00:08;;;;;;;;;;;4.10;99.90;4.60;101066.00;;;;339111;28;86910;-88
2021/12/18 01:00:23;;;;;;;;;;;4.10;99.90;4.50;101082.00;;;;339302;28;90606;-87
2021/12/18 01:00:37;;;;;;;;;;;4.10;99.90;4.60;101069.00;;;;340398;28;86788;-87
2021/12/18 01:00:52;;;;;;;;;;;4.10;99.90;4.60;101068.00;;;;339394;28;86217;-87
2021/12/18 01:01:08;;;;;;;;;;;4.10;99.90;4.60;101077.00;;;;338787;28;86062;-88
2021/12/18 01:01:21;;;;;;;;;;;4.10;99.90;4.60;101077.00;;;;339156;28;89424;-87
2021/12/18 01:01:33;;;;;;;;;;;4.10;99.90;4.60;101080.00;;;;340368;28;85992;-87
2021/12/18 01:01:46;;;;;;;;;;;4.10;99.90;4.60;101077.00;;;;341992;28;90146;-87
2021/12/18 01:01:58;;;;;;;;;;;4.10;99.90;4.60;101074.00;;;;340416;28;85938;-87
2021/12/18 01:02:10;;;;;;;;;;;4.10;99.90;4.50;101074.00;;;;341230;28;90492;-88
2021/12/18 01:02:22;;;;;;;;;;;4.10;99.90;4.60;101070.00;;;;343169;28;85999;-87
2021/12/18 01:02:36;;;;;;;;;;;4.10;99.90;4.60;101079.00;;;;340608;28;87940;-88
2021/12/18 01:02:55;;;;;;;;;;;4.10;99.90;4.60;101076.00;;;;340070;28;86859;-87
2021/12/18 01:03:16;;;;;;;;;;;4.10;99.90;4.50;101080.00;;;;340510;28;89569;-87
2021/12/18 01:03:28;;;;;;;;;;;4.10;99.90;4.60;101084.00;;;;340163;28;87481;-87
2021/12/18 01:03:41;;;;;;;;;;;4.10;99.90;4.60;101073.00;;;;342151;28;85193;-87
2021/12/18 01:03:53;;;;;;;;;;;4.10;99.90;4.70;101080.00;;;;341631;28;87795;-87
2021/12/18 01:04:06;;;;;;;;;;;4.10;99.90;4.80;101075.00;;;;340789;28;91201;-87
2021/12/18 01:04:18;;;;;;;;;;;4.10;99.90;4.70;101066.00;;;;339170;28;86463;-87